Time;durP1;ratioP1;P1;durP2;ratioP2;P2;SDS_P1;SDS_P2;PMS_P1;PMS_P2;Temp;Humidity;BMP_temperature;BMP_pressure;BME280_temperature;BME280_humidity;BME280_pressure;Samples;Min_cycle;Max_cycle;Signal;HPM_P1;HPM_P2
2021/03/26 01:41:00;;;;;;;20.92;8.77;;;;;;;6.18;100.00;101713.50;3895195;28;20537;-61
2021/03/26 01:43:29;;;;;;;19.67;8.30;;;;;;;6.16;100.00;101721.59;5047522;28;20051;-61
2021/03/26 01:45:56;;;;;;;16.92;8.43;;;;;;;6.16;100.00;101713.59;5047512;28;20053;-61
2021/03/26 01:48:25;;;;;;;19.92;8.52;;;;;;;6.14;100.00;101707.47;5048170;28;20479;-61
2021/03/26 01:50:51;;;;;;;18.67;8.52;;;;;;;6.12;100.00;101710.25;5045016;28;20437;-62
2021/03/26 01:53:18;;;;;;;20.88;8.95;;;;;;;6.16;100.00;101710.91;5046382;28;20099;-61
2021/03/26 01:55:46;;;;;;;15.60;9.07;;;;;;;6.14;100.00;101702.97;5047773;28;20472;-61
2021/03/26 01:58:15;;;;;;;16.88;8.65;;;;;;;6.17;100.00;101707.31;5047950;28;20498;-62
2021/03/26 02:00:44;;;;;;;18.20;8.55;;;;;;;6.12;100.00;101696.88;5043470;28;20063;-63
2021/03/26 02:03:17;;;;;;;15.88;9.73;;;;;;;6.09;100.00;101698.84;5045041;28;20053;-61
2021/03/26 02:05:44;;;;;;;21.02;10.10;;;;;;;6.05;100.00;101697.28;5045196;28;20190;-62
2021/03/26 02:08:13;;;;;;;19.45;9.95;;;;;;;6.02;100.00;101697.47;5047019;28;20049;-63
2021/03/26 02:10:39;;;;;;;21.52;10.05;;;;;;;6.09;100.00;101699.69;5044938;28;20052;-63
2021/03/26 02:13:07;;;;;;;18.17;10.43;;;;;;;6.01;100.00;101693.06;5047259;28;20426;-64
2021/03/26 02:15:40;;;;;;;26.65;13.35;;;;;;;6.03;100.00;101694.69;5047644;28;20045;-61
2021/03/26 02:18:08;;;;;;;22.45;13.02;;;;;;;5.97;100.00;101690.56;5047940;28;20134;-61
2021/03/26 02:20:44;;;;;;;25.80;13.23;;;;;;;5.92;100.00;101692.59;5043971;28;20059;-61
2021/03/26 02:23:13;;;;;;;28.27;13.88;;;;;;;5.88;100.00;101684.84;5046326;28;20052;-61
2021/03/26 02:25:40;;;;;;;25.70;12.53;;;;;;;5.86;100.00;101687.59;5045334;28;20052;-61
2021/03/26 02:28:07;;;;;;;21.25;12.23;;;;;;;5.83;100.00;101682.44;5040603;28;20044;-61
2021/03/26 02:30:37;;;;;;;20.60;12.02;;;;;;;5.82;100.00;101691.38;5047318;28;20049;-62
2021/03/26 02:33:03;;;;;;;20.13;11.50;;;;;;;5.77;100.00;101694.31;5046151;28;20055;-61
2021/03/26 02:35:33;;;;;;;22.40;12.82;;;;;;;5.68;100.00;101693.94;5046707;28;20068;-61
2021/03/26 02:38:05;;;;;;;20.65;12.65;;;;;;;5.65;100.00;101683.44;5045987;28;20045;-61
2021/03/26 02:40:39;;;;;;;20.30;12.73;;;;;;;5.64;100.00;101684.38;5046019;28;20056;-60
2021/03/26 02:43:20;;;;;;;24.25;14.38;;;;;;;5.60;100.00;101679.22;5045302;28;20052;-61
2021/03/26 02:45:51;;;;;;;25.10;14.00;;;;;;;5.58;100.00;101678.44;5047428;28;20057;-61
2021/03/26 02:48:26;;;;;;;23.25;11.80;;;;;;;5.56;100.00;101679.47;5045449;28;20045;-63
2021/03/26 02:51:01;;;;;;;23.30;13.38;;;;;;;5.68;100.00;101680.59;5044977;28;20079;-61
2021/03/26 02:53:37;;;;;;;27.23;13.13;;;;;;;5.63;100.00;101669.31;5057527;28;20044;-61
2021/03/26 02:56:07;;;;;;;26.35;13.60;;;;;;;5.70;100.00;101670.72;5064893;28;20043;-61
2021/03/26 02:58:37;;;;;;;23.48;14.65;;;;;;;5.71;100.00;101683.09;5063947;28;20195;-62
2021/03/26 03:01:09;;;;;;;27.95;14.05;;;;;;;5.75;100.00;101665.97;5061651;28;20037;-61
2021/03/26 03:03:38;;;;;;;22.48;14.15;;;;;;;5.80;100.00;101666.59;5067313;28;20057;-62
2021/03/26 03:06:10;;;;;;;23.98;13.27;;;;;;;5.87;100.00;101667.94;5065534;28;20052;-61
2021/03/26 03:08:37;;;;;;;22.45;13.73;;;;;;;5.87;100.00;101667.94;5065369;28;20114;-61
2021/03/26 03:11:11;;;;;;;22.13;13.43;;;;;;;5.91;100.00;101666.81;5062838;28;20056;-62
2021/03/26 03:13:44;;;;;;;22.63;14.60;;;;;;;5.89;100.00;101655.38;5065768;28;20040;-62
2021/03/26 03:16:16;;;;;;;25.13;13.90;;;;;;;5.90;100.00;101658.91;5064961;28;20044;-62
2021/03/26 03:18:46;;;;;;;26.02;13.70;;;;;;;5.97;100.00;101646.94;5066221;28;20481;-62
2021/03/26 03:21:18;;;;;;;25.83;14.38;;;;;;;5.96;100.00;101651.41;5064011;28;20060;-62
2021/03/26 03:23:52;;;;;;;27.65;15.02;;;;;;;5.94;100.00;101647.09;5063849;28;20059;-61
2021/03/26 03:26:25;;;;;;;25.48;14.30;;;;;;;5.95;100.00;101651.50;5065870;28;20048;-62
2021/03/26 03:28:58;;;;;;;28.52;16.45;;;;;;;5.99;100.00;101649.53;5058248;28;20051;-63
2021/03/26 03:31:28;;;;;;;29.83;15.82;;;;;;;6.05;100.00;101650.06;5045833;28;20107;-62
2021/03/26 03:34:05;;;;;;;25.48;14.95;;;;;;;6.05;100.00;101651.84;5045406;28;20053;-61
2021/03/26 03:36:48;;;;;;;28.67;15.20;;;;;;;6.14;100.00;101646.00;5047134;28;20049;-61
2021/03/26 03:39:22;;;;;;;26.70;16.30;;;;;;;6.18;100.00;101644.84;5044747;28;20485;-61
2021/03/26 03:41:58;;;;;;;25.35;15.60;;;;;;;6.25;100.00;101646.22;5060026;28;20383;-63
2021/03/26 03:44:36;;;;;;;26.95;15.18;;;;;;;6.29;100.00;101636.22;5064742;28;20053;-61
2021/03/26 03:47:08;;;;;;;29.73;16.58;;;;;;;6.34;100.00;101633.28;5067119;28;20053;-63
2021/03/26 03:49:38;;;;;;;30.50;17.77;;;;;;;6.31;100.00;101629.81;5063373;28;20071;-61
2021/03/26 03:52:11;;;;;;;30.88;18.23;;;;;;;6.31;100.00;101642.34;5064460;28;20078;-61
2021/03/26 03:54:41;;;;;;;31.67;19.67;;;;;;;6.30;100.00;101622.78;5065663;28;20052;-63
2021/03/26 03:57:11;;;;;;;32.38;19.83;;;;;;;6.39;100.00;101637.41;5063792;28;20056;-61
2021/03/26 03:59:49;;;;;;;33.70;19.60;;;;;;;6.37;100.00;101633.09;5064680;28;20418;-62
2021/03/26 04:02:22;;;;;;;33.28;18.90;;;;;;;6.37;100.00;101622.41;5061670;28;20048;-61
2021/03/26 04:04:57;;;;;;;36.00;21.42;;;;;;;6.39;100.00;101621.38;5065142;28;20486;-61
2021/03/26 04:07:32;;;;;;;33.40;19.75;;;;;;;6.42;100.00;101620.31;5068297;28;20049;-61
2021/03/26 04:10:04;;;;;;;38.25;22.40;;;;;;;6.40;100.00;101627.56;5067410;28;20068;-63
2021/03/26 04:12:36;;;;;;;37.85;21.50;;;;;;;6.43;100.00;101633.63;5068508;28;20483;-61
2021/03/26 04:15:09;;;;;;;39.17;22.75;;;;;;;6.41;100.00;101631.97;5068685;28;20049;-62
2021/03/26 04:17:41;;;;;;;35.03;21.10;;;;;;;6.47;100.00;101639.63;5069318;28;20048;-63
2021/03/26 04:20:15;;;;;;;34.22;23.02;;;;;;;6.40;100.00;101623.06;5064499;28;20105;-60
2021/03/26 04:22:49;;;;;;;34.13;21.58;;;;;;;6.41;100.00;101615.94;5067719;28;20071;-61
2021/03/26 04:25:20;;;;;;;36.78;23.73;;;;;;;6.46;100.00;101632.56;5062355;28;20082;-61
2021/03/26 04:27:53;;;;;;;38.72;22.38;;;;;;;6.36;100.00;101620.69;5065277;28;20049;-62
2021/03/26 04:30:25;;;;;;;39.40;24.33;;;;;;;6.35;100.00;101605.59;5066553;28;20056;-61
2021/03/26 04:32:52;;;;;;;50.10;26.05;;;;;;;6.36;100.00;101604.63;5068643;28;20048;-61
2021/03/26 04:35:21;;;;;;;44.17;25.05;;;;;;;6.36;100.00;101610.88;5067105;28;20425;-61
2021/03/26 04:37:54;;;;;;;51.08;28.05;;;;;;;6.38;100.00;101608.94;5069378;28;20056;-61
2021/03/26 04:40:25;;;;;;;46.55;28.33;;;;;;;6.35;100.00;101605.59;5065881;28;20478;-61
2021/03/26 04:43:00;;;;;;;54.63;30.95;;;;;;;6.37;100.00;101599.19;5064449;28;20048;-62
2021/03/26 04:45:34;;;;;;;56.60;29.23;;;;;;;6.38;100.00;101598.25;5040926;28;20040;-61
2021/03/26 04:48:07;;;;;;;62.67;33.40;;;;;;;6.37;100.00;101593.00;5050062;28;20048;-61
2021/03/26 04:50:36;;;;;;;53.60;29.35;;;;;;;6.35;100.00;101589.56;5058460;28;20048;-62
2021/03/26 04:53:08;;;;;;;58.88;32.05;;;;;;;6.38;100.00;101589.38;5068532;28;20588;-61
2021/03/26 04:55:39;;;;;;;49.83;30.45;;;;;;;6.37;100.00;101601.03;5067130;28;20409;-62
2021/03/26 04:58:08;;;;;;;50.05;27.35;;;;;;;6.33;100.00;101595.00;5068734;28;20094;-61
2021/03/26 05:00:40;;;;;;;46.40;26.75;;;;;;;6.37;100.00;101595.66;5064748;28;20056;-61
2021/03/26 05:03:13;;;;;;;45.78;28.98;;;;;;;6.34;100.00;101595.84;5060570;28;20448;-61
2021/03/26 05:05:44;;;;;;;50.10;28.20;;;;;;;6.45;100.00;101598.75;5065874;28;20193;-61
2021/03/26 05:08:11;;;;;;;47.28;29.00;;;;;;;6.50;100.00;101596.66;5068842;28;20048;-61
2021/03/26 05:10:39;;;;;;;52.78;29.85;;;;;;;6.50;100.00;101596.66;5053942;28;20040;-61
2021/03/26 05:13:09;;;;;;;46.00;28.83;;;;;;;6.50;100.00;101596.66;5064656;28;20512;-63
2021/03/26 05:15:41;;;;;;;45.75;28.15;;;;;;;6.45;100.00;101593.41;5069087;28;20040;-61
2021/03/26 05:18:10;;;;;;;48.97;30.00;;;;;;;6.44;100.00;101594.34;5066867;28;20071;-64
2021/03/26 05:20:44;;;;;;;48.75;29.10;;;;;;;6.49;100.00;101595.81;5064473;28;20516;-62
2021/03/26 05:23:15;;;;;;;45.40;26.65;;;;;;;6.51;100.00;101595.72;5068386;28;20273;-60
2021/03/26 05:25:44;;;;;;;44.85;28.17;;;;;;;6.49;100.00;101592.25;5067733;28;20060;-61
2021/03/26 05:28:12;;;;;;;;;;;;;;;6.48;100.00;101594.09;5067922;28;20247;-61
2021/03/26 05:30:41;;;;;;;46.60;26.15;;;;;;;6.54;100.00;101586.66;5063868;28;19947;-61
2021/03/26 05:33:13;;;;;;;46.70;28.15;;;;;;;6.58;100.00;101593.53;5067897;28;20671;-61
2021/03/26 05:35:47;;;;;;;44.67;26.27;;;;;;;6.61;100.00;101599.56;5065486;28;20504;-64
2021/03/26 05:38:17;;;;;;;41.60;25.40;;;;;;;6.59;100.00;101589.91;5066047;28;20049;-63
2021/03/26 05:41:18;;;;;;;45.30;26.02;;;;;;;6.63;100.00;101586.09;5066359;28;20482;-62
2021/03/26 05:44:20;;;;;;;46.63;25.33;;;;;;;6.66;100.00;101586.75;5065822;28;20135;-63
2021/03/26 05:47:21;;;;;;;42.78;25.20;;;;;;;6.71;100.00;101583.78;5040268;28;20082;-61
2021/03/26 05:49:58;;;;;;;38.67;23.83;;;;;;;6.75;100.00;101579.13;5065748;28;20048;-61
2021/03/26 05:52:40;;;;;;;46.03;26.75;;;;;;;6.78;100.00;101585.16;5065610;28;20071;-62
2021/03/26 05:55:20;;;;;;;46.00;25.85;;;;;;;6.84;100.00;101581.25;5063565;28;20061;-61
2021/03/26 05:57:57;;;;;;;39.20;24.05;;;;;;;6.82;100.00;101584.00;5067595;28;20101;-61
2021/03/26 06:00:53;;;;;;;45.45;26.67;;;;;;;6.88;100.00;101588.13;5062964;28;20584;-61
2021/03/26 06:03:33;;;;;;;40.58;24.17;;;;;;;6.93;100.00;101587.84;5065248;28;20060;-63
2021/03/26 06:06:28;;;;;;;39.67;24.48;;;;;;;6.93;100.00;101572.63;5062045;28;20503;-61
2021/03/26 06:09:32;;;;;;;43.00;24.42;;;;;;;6.93;100.00;101578.00;5066482;28;20097;-61
2021/03/26 06:12:15;;;;;;;39.78;25.27;;;;;;;6.95;100.00;101581.44;5063520;28;20062;-63
2021/03/26 06:15:12;;;;;;;41.88;25.13;;;;;;;6.95;100.00;101581.44;5067040;28;20397;-63
2021/03/26 06:18:14;;;;;;;40.50;23.95;;;;;;;6.97;100.00;101576.84;5064245;28;20048;-61
2021/03/26 06:20:54;;;;;;;43.75;25.15;;;;;;;6.99;100.00;101580.31;5063277;28;20154;-62
2021/03/26 06:23:48;;;;;;;39.42;23.40;;;;;;;7.01;100.00;101570.34;5066618;28;20505;-61
2021/03/26 06:26:36;;;;;;;39.55;23.50;;;;;;;7.04;100.00;101573.78;5062742;28;20129;-64
2021/03/26 06:29:12;;;;;;;40.38;24.65;;;;;;;7.05;100.00;101573.69;5058437;28;20087;-63
2021/03/26 06:32:07;;;;;;;40.13;23.65;;;;;;;7.09;100.00;101577.91;5066394;28;20566;-61
2021/03/26 06:35:13;;;;;;;37.35;23.55;;;;;;;7.10;100.00;101573.44;5062881;28;20063;-64
2021/03/26 06:38:01;;;;;;;39.42;22.70;;;;;;;7.11;100.00;101567.97;5067923;28;20462;-61
2021/03/26 06:40:45;;;;;;;43.53;21.52;;;;;;;7.17;100.00;101564.06;5057957;28;20547;-63
2021/03/26 06:43:28;;;;;;;37.65;22.30;;;;;;;7.24;100.00;101564.53;5046374;28;20060;-62
2021/03/26 06:46:14;;;;;;;39.90;23.30;;;;;;;7.25;100.00;101560.88;5046279;28;20064;-61
2021/03/26 06:48:55;;;;;;;42.38;24.15;;;;;;;7.27;100.00;101565.16;5046074;28;20047;-63
2021/03/26 06:51:35;;;;;;;36.42;21.42;;;;;;;7.31;100.00;101563.16;5045038;28;20936;-62
2021/03/26 06:54:31;;;;;;;33.22;19.77;;;;;;;7.37;100.00;101566.31;5047847;28;20052;-60
2021/03/26 06:57:35;;;;;;;37.20;22.25;;;;;;;7.41;100.00;101561.63;5045627;28;20509;-61
2021/03/26 07:00:29;;;;;;;39.15;22.92;;;;;;;7.45;100.00;101562.28;5046524;28;20092;-62
2021/03/26 07:03:10;;;;;;;40.90;23.02;;;;;;;7.50;100.00;101554.81;5040756;28;20545;-62
2021/03/26 07:06:16;;;;;;;39.83;23.10;;;;;;;7.47;100.00;101555.03;5046086;28;20045;-61
2021/03/26 07:08:53;;;;;;;36.25;22.02;;;;;;;7.51;100.00;101553.88;5016927;28;20049;-64
2021/03/26 07:11:36;;;;;;;41.10;23.58;;;;;;;7.56;100.00;101557.09;5044601;28;20609;-63
2021/03/26 07:14:17;;;;;;;34.78;21.52;;;;;;;7.59;100.00;101546.19;5045263;28;20045;-61
2021/03/26 07:17:10;;;;;;;43.25;22.10;;;;;;;7.61;100.00;101563.03;5044373;28;20164;-63
2021/03/26 07:19:53;;;;;;;35.15;21.70;;;;;;;7.67;100.00;101551.03;5044552;28;20049;-62
2021/03/26 07:22:47;;;;;;;39.63;23.08;;;;;;;7.72;100.00;101556.97;5046651;28;20063;-62
2021/03/26 07:25:26;;;;;;;37.72;22.30;;;;;;;7.80;100.00;101549.28;5053714;28;20052;-61
2021/03/26 07:28:17;;;;;;;36.83;21.55;;;;;;;7.89;100.00;101553.16;5051753;28;20056;-61
2021/03/26 07:30:52;;;;;;;37.08;21.98;;;;;;;7.95;100.00;101551.91;5048987;28;20494;-61
2021/03/26 07:33:47;;;;;;;39.90;21.98;;;;;;;7.98;100.00;101557.94;5051871;22;20067;-61
2021/03/26 07:36:32;;;;;;;35.40;22.08;;;;;;;8.06;100.00;101557.41;5026921;28;20045;-61
2021/03/26 07:39:19;;;;;;;34.50;22.27;;;;;;;8.08;100.00;101560.84;5039975;28;20144;-61
2021/03/26 07:42:00;;;;;;;34.58;22.65;;;;;;;8.16;100.00;101546.94;5041681;28;20510;-61
2021/03/26 07:44:43;;;;;;;34.67;21.05;;;;;;;8.24;100.00;101547.25;5043803;28;20056;-61
2021/03/26 07:47:28;;;;;;;36.88;22.50;;;;;;;8.28;100.00;101550.59;5043178;28;20042;-61
2021/03/26 07:50:17;;;;;;;38.83;21.90;;;;;;;8.37;100.00;101545.47;5042757;28;20049;-63
2021/03/26 07:52:50;;;;;;;32.33;20.40;;;;;;;8.42;100.00;101542.44;5043201;28;20147;-61
2021/03/26 07:55:25;;;;;;;36.33;20.95;;;;;;;8.51;100.00;101554.41;5042993;28;20053;-63
2021/03/26 07:58:04;;;;;;;34.58;22.33;;;;;;;8.76;100.00;101548.22;5042783;28;20045;-61
2021/03/26 08:00:56;;;;;;;34.10;21.02;;;;;;;8.69;100.00;101549.63;5042383;28;20389;-61
2021/03/26 08:03:53;;;;;;;32.25;19.77;;;;;;;8.76;100.00;101553.59;5041999;28;20068;-61
2021/03/26 08:06:47;;;;;;;35.67;20.65;;;;;;;8.78;100.00;101548.97;5028687;28;20076;-61
2021/03/26 08:09:28;;;;;;;35.00;18.80;;;;;;;8.91;100.00;101544.44;5042812;28;20040;-64
2021/03/26 08:11:59;;;;;;;32.80;20.52;;;;;;;9.14;100.00;101538.41;5042723;28;20056;-62
2021/03/26 08:14:51;;;;;;;36.58;21.60;;;;;;;9.28;100.00;101539.13;5042842;28;20080;-63
2021/03/26 08:17:25;;;;;;;30.35;19.58;;;;;;;9.53;100.00;101533.81;5042071;28;20057;-61
2021/03/26 08:20:05;;;;;;;34.75;20.85;;;;;;;9.61;100.00;101536.78;5042689;28;20052;-64
2021/03/26 08:22:41;;;;;;;31.88;20.08;;;;;;;9.73;100.00;101532.31;5041129;28;20049;-64
2021/03/26 08:25:24;;;;;;;37.95;20.95;;;;;;;9.93;100.00;101530.84;5041611;28;20049;-72
2021/03/26 08:28:02;;;;;;;37.22;20.77;;;;;;;9.95;100.00;101529.75;5043732;28;20645;-62
2021/03/26 08:30:36;;;;;;;31.65;18.42;;;;;;;9.93;100.00;101526.31;5043222;28;20041;-61
2021/03/26 08:33:19;;;;;;;33.60;17.92;;;;;;;10.05;100.00;101535.28;5043193;28;20513;-61
2021/03/26 08:36:10;;;;;;;36.63;19.58;;;;;;;10.35;100.00;101531.28;5042974;28;20060;-61
2021/03/26 08:38:48;;;;;;;27.88;18.38;;;;;;;10.37;100.00;101537.38;5044617;28;20642;-61
2021/03/26 08:41:18;;;;;;;26.45;17.15;;;;;;;10.13;100.00;101530.19;5042182;28;20060;-63
2021/03/26 08:43:50;;;;;;;29.00;17.83;;;;;;;10.39;100.00;101527.34;5044308;28;20100;-62
2021/03/26 08:46:20;;;;;;;27.10;17.85;;;;;;;10.48;100.00;101533.84;5041641;28;20057;-61
2021/03/26 08:48:54;;;;;;;34.25;19.60;;;;;;;10.57;100.00;101529.59;5043613;28;20053;-61
2021/03/26 08:51:50;;;;;;;27.77;16.48;;;;;;;10.64;100.00;101537.06;5043046;28;20064;-63
2021/03/26 08:54:30;;;;;;;36.00;19.02;;;;;;;10.75;100.00;101517.38;5042397;28;20072;-64
2021/03/26 08:57:12;;;;;;;32.58;19.55;;;;;;;11.02;100.00;101524.25;5043918;28;20041;-63
2021/03/26 08:59:54;;;;;;;34.40;19.20;;;;;;;11.10;100.00;101515.53;5042488;28;20505;-61
2021/03/26 09:02:46;;;;;;;28.40;17.63;;;;;;;10.93;100.00;101517.75;5042022;28;20068;-63
2021/03/26 09:05:30;;;;;;;28.63;16.63;;;;;;;11.24;100.00;101512.59;5042525;28;20411;-61
2021/03/26 09:08:09;;;;;;;25.90;16.17;;;;;;;11.47;100.00;101505.34;5043439;28;20050;-61
2021/03/26 09:11:23;;;;;;;22.70;14.73;;;;;;;11.51;100.00;101514.91;5043183;28;20048;-62
2021/03/26 09:14:13;;;;;;;23.65;14.73;;;;;;;11.43;100.00;101511.13;5020423;28;20045;-61
2021/03/26 09:16:45;;;;;;;22.10;14.77;;;;;;;11.65;100.00;101515.59;5042238;28;20053;-63
2021/03/26 09:19:17;;;;;;;22.50;14.43;;;;;;;11.74;100.00;101512.13;5041940;28;20057;-62
2021/03/26 09:21:53;;;;;;;21.48;14.07;;;;;;;11.58;100.00;101505.28;5043179;28;20041;-63
2021/03/26 09:24:48;;;;;;;24.45;14.95;;;;;;;11.80;100.00;101514.31;5033767;28;20057;-61
2021/03/26 09:27:23;;;;;;;26.63;14.60;;;;;;;11.91;100.00;101500.78;5041866;28;20486;-62
2021/03/26 09:29:59;;;;;;;22.48;14.45;;;;;;;11.99;100.00;101497.47;5042899;28;20051;-62
2021/03/26 09:32:29;;;;;;;21.27;14.68;;;;;;;12.02;100.00;101496.34;5042110;28;20451;-61
2021/03/26 09:35:11;;;;;;;23.70;13.23;;;;;;;12.11;100.00;101494.72;5041341;28;20499;-61
2021/03/26 09:37:44;;;;;;;22.85;12.00;;;;;;;12.17;100.00;101500.44;5041385;28;20053;-62
2021/03/26 09:40:20;;;;;;;19.33;12.30;;;;;;;12.40;100.00;101492.22;5040994;28;20076;-62
2021/03/26 09:42:51;;;;;;;18.52;12.23;;;;;;;12.47;100.00;101496.09;5041519;28;20056;-62
2021/03/26 09:45:34;;;;;;;18.45;12.15;;;;;;;12.51;100.00;101481.31;5041160;28;20466;-64
2021/03/26 09:48:26;;;;;;;21.58;12.90;;;;;;;12.55;100.00;101490.88;5038718;28;20063;-62
2021/03/26 09:51:02;;;;;;;20.67;11.40;;;;;;;12.44;100.00;101496.38;5040131;28;20041;-61
2021/03/26 09:53:36;;;;;;;17.83;11.38;;;;;;;12.36;100.00;101491.63;5041067;28;20049;-62
2021/03/26 09:56:21;;;;;;;21.92;11.52;;;;;;;12.49;100.00;101491.41;5041134;28;20051;-62
2021/03/26 09:58:56;;;;;;;18.10;10.88;;;;;;;12.85;100.00;101486.47;5041445;28;20048;-63
2021/03/26 10:01:26;;;;;;;16.90;10.45;;;;;;;12.72;100.00;101477.75;5039358;28;20133;-62
2021/03/26 10:03:59;;;;;;;16.05;9.80;;;;;;;13.01;100.00;101482.41;5040132;28;20053;-62
2021/03/26 10:06:37;;;;;;;16.52;9.18;;;;;;;13.06;100.00;101477.44;5040523;28;20060;-61
2021/03/26 10:09:22;;;;;;;15.07;9.13;;;;;;;13.16;100.00;101475.63;5040807;28;20049;-64
2021/03/26 10:11:59;;;;;;;14.63;8.23;;;;;;;12.99;100.00;101452.84;5040263;28;20155;-62
2021/03/26 10:14:28;;;;;;;17.55;9.20;;;;;;;13.15;100.00;101463.97;5040328;28;20063;-62
2021/03/26 10:17:00;;;;;;;;;;;;;;;13.41;100.00;101451.81;5041462;28;20087;-62
2021/03/26 10:19:31;;;;;;;15.00;8.57;;;;;;;13.45;100.00;101464.06;5040011;28;19960;-61
2021/03/26 10:21:58;;;;;;;17.30;9.60;;;;;;;13.38;100.00;101446.69;5040065;28;20071;-62
2021/03/26 10:24:32;;;;;;;16.00;8.98;;;;;;;13.32;100.00;101464.28;5039894;28;20102;-62
2021/03/26 10:27:06;;;;;;;13.35;8.63;;;;;;;13.18;100.00;101460.16;5040895;28;20057;-62
2021/03/26 10:29:41;;;;;;;14.82;8.93;;;;;;;13.17;100.00;101455.72;5040068;28;20033;-61
2021/03/26 10:32:14;;;;;;;14.18;7.90;;;;;;;13.31;100.00;101441.81;5039280;28;20501;-62
2021/03/26 10:34:43;;;;;;;14.50;7.53;;;;;;;13.01;100.00;101444.59;5040026;28;20045;-63
2021/03/26 10:37:37;;;;;;;13.40;7.43;;;;;;;13.23;100.00;101444.34;5040209;28;20072;-62
2021/03/26 10:40:08;;;;;;;12.30;7.78;;;;;;;13.23;100.00;101436.22;5039263;28;20279;-64
2021/03/26 10:42:42;;;;;;;11.43;6.80;;;;;;;12.79;100.00;101443.78;5039774;28;20057;-64
2021/03/26 10:45:27;;;;;;;10.88;6.05;;;;;;;12.80;100.00;101438.25;5039548;28;20060;-62
2021/03/26 10:47:59;;;;;;;10.20;4.95;;;;;;;12.81;99.30;101431.03;5040546;28;20051;-61
2021/03/26 10:50:35;;;;;;;7.45;5.38;;;;;;;12.71;100.00;101451.75;5039701;28;20523;-64
2021/03/26 10:55:41;;;;;;;8.18;4.53;;;;;;;13.21;94.81;101427.44;5099719;22;20044;-62
2021/03/26 10:58:14;;;;;;;10.52;4.18;;;;;;;12.74;95.59;101430.69;5061119;28;20048;-63
2021/03/26 11:00:44;;;;;;;10.68;4.60;;;;;;;12.74;94.41;101432.56;5060496;28;20049;-64
2021/03/26 11:03:16;;;;;;;10.25;4.47;;;;;;;12.70;95.15;101418.44;5058905;28;20436;-63
2021/03/26 11:05:51;;;;;;;10.00;5.05;;;;;;;12.66;96.59;101435.94;5059788;28;20059;-64
2021/03/26 11:08:30;;;;;;;8.40;5.10;;;;;;;12.57;95.94;101425.94;5058068;28;20506;-64
2021/03/26 11:11:05;;;;;;;10.35;5.25;;;;;;;12.41;98.44;101427.28;5059207;28;20045;-63
2021/03/26 11:13:43;;;;;;;9.18;5.30;;;;;;;12.95;96.07;101425.22;5056243;28;20045;-65
2021/03/26 11:16:19;;;;;;;8.57;4.63;;;;;;;12.87;94.92;101421.53;5049970;28;20056;-63
2021/03/26 11:18:53;;;;;;;10.40;5.38;;;;;;;13.03;94.58;101426.38;5044219;28;20041;-62
2021/03/26 11:21:21;;;;;;;10.50;5.50;;;;;;;13.09;94.87;101415.03;5044261;28;20045;-65
2021/03/26 11:23:56;;;;;;;8.52;5.13;;;;;;;12.80;94.41;101415.78;5044083;28;20116;-61
2021/03/26 11:26:30;;;;;;;10.73;5.47;;;;;;;12.65;91.59;101395.53;5054583;28;20064;-61
2021/03/26 11:29:05;;;;;;;8.75;5.25;;;;;;;13.12;93.36;101393.13;5064475;28;20048;-64
2021/03/26 11:31:35;;;;;;;12.38;5.22;;;;;;;13.84;91.42;101404.56;5063975;28;20052;-63
2021/03/26 11:34:20;;;;;;;14.85;5.25;;;;;;;13.91;86.64;101389.44;5064041;28;20742;-63
2021/03/26 11:37:21;;;;;;;10.25;5.47;;;;;;;13.22;89.82;101391.31;5063736;28;20500;-63
2021/03/26 11:39:58;;;;;;;11.30;4.90;;;;;;;12.94;89.04;101385.69;5063579;28;20430;-63
2021/03/26 11:42:45;;;;;;;11.48;5.93;;;;;;;13.18;90.57;101383.63;5063448;28;20048;-62
2021/03/26 11:45:32;;;;;;;13.10;6.00;;;;;;;13.37;89.06;101385.50;5063221;28;20114;-64
2021/03/26 11:51:06;;;;;;;11.23;5.68;;;;;;;13.63;86.07;101380.38;5125172;22;20539;-62
2021/03/26 11:53:38;;;;;;;9.57;5.07;;;;;;;13.53;84.90;101374.97;5126977;27;20047;-66
2021/03/26 11:56:24;;;;;;;9.48;5.57;;;;;;;13.42;83.26;101373.25;5128932;27;20051;-62
2021/03/26 12:01:20;;;;;;;7.57;4.60;;;;;;;13.85;83.72;101360.25;5079539;22;20048;-62
2021/03/26 12:04:01;;;;;;;12.05;5.68;;;;;;;13.48;84.41;101371.84;5082368;28;20049;-64
2021/03/26 12:06:35;;;;;;;9.50;5.18;;;;;;;13.31;84.84;101352.59;5081688;28;20573;-63
2021/03/26 12:09:07;;;;;;;8.93;5.35;;;;;;;13.38;86.54;101354.75;5080857;28;20072;-65
2021/03/26 12:11:39;;;;;;;11.27;4.78;;;;;;;13.48;85.29;101355.63;5082529;28;20044;-63
2021/03/26 12:14:16;;;;;;;8.95;4.70;;;;;;;13.88;83.13;101357.25;5081977;28;20051;-63
2021/03/26 12:16:53;;;;;;;9.07;5.03;;;;;;;13.36;81.22;101359.47;5082501;28;20044;-63
2021/03/26 12:19:23;;;;;;;8.65;4.85;;;;;;;13.61;83.12;101347.22;5081961;28;20044;-65
2021/03/26 12:22:00;;;;;;;6.53;4.32;;;;;;;13.39;81.61;101356.47;5082324;28;20079;-62
2021/03/26 12:24:32;;;;;;;10.30;4.75;;;;;;;14.02;80.31;101332.44;5075883;28;20048;-61
2021/03/26 12:27:13;;;;;;;6.80;3.78;;;;;;;14.12;79.21;101342.38;5081364;28;20044;-61
2021/03/26 12:29:50;;;;;;;9.70;4.70;;;;;;;14.26;75.70;101331.09;5082360;28;20036;-65
2021/03/26 12:32:31;;;;;;;9.82;4.10;;;;;;;14.00;77.70;101334.47;5081417;28;20447;-62
2021/03/26 12:35:17;;;;;;;8.07;4.18;;;;;;;14.35;75.64;101326.63;5082047;28;20040;-61
2021/03/26 12:37:48;;;;;;;8.45;4.22;;;;;;;14.10;74.18;101328.16;5081502;28;20048;-63
2021/03/26 12:40:35;;;;;;;9.60;4.28;;;;;;;14.74;74.28;101322.88;5081676;28;20062;-61
2021/03/26 12:43:07;;;;;;;6.07;4.07;;;;;;;14.19;75.24;101324.56;5082276;28;20106;-63
2021/03/26 12:45:40;;;;;;;10.32;4.32;;;;;;;13.77;76.19;101328.53;5077917;28;20049;-62
2021/03/26 12:48:13;;;;;;;9.15;4.07;;;;;;;13.88;74.70;101313.97;5069988;28;20044;-61
2021/03/26 12:50:46;;;;;;;10.32;4.90;;;;;;;14.31;75.94;101325.22;5067349;28;20053;-64
2021/03/26 12:53:16;;;;;;;9.63;4.88;;;;;;;13.97;75.20;101318.53;5065864;28;20401;-62
2021/03/26 12:55:50;;;;;;;11.75;4.90;;;;;;;13.77;75.52;101317.72;5067501;28;20044;-64
2021/03/26 12:58:24;;;;;;;8.93;4.15;;;;;;;14.25;74.78;101315.00;5067636;28;20048;-61
2021/03/26 13:00:56;;;;;;;10.38;4.45;;;;;;;14.51;72.07;101309.72;5069339;28;20140;-61
2021/03/26 13:03:31;;;;;;;10.00;4.65;;;;;;;14.40;72.76;101308.09;5072807;28;20376;-63
2021/03/26 13:06:07;;;;;;;10.88;5.03;;;;;;;13.93;73.52;101298.16;5074562;28;20071;-64
2021/03/26 13:08:36;;;;;;;9.98;5.05;;;;;;;14.31;74.12;101301.72;5079748;28;20176;-62
2021/03/26 13:11:15;;;;;;;12.05;4.93;;;;;;;14.65;71.48;101293.00;5080841;28;20051;-62
2021/03/26 13:13:44;;;;;;;6.90;4.60;;;;;;;14.52;71.95;101295.19;5079137;28;20055;-62
2021/03/26 13:16:19;;;;;;;10.20;4.90;;;;;;;14.04;72.05;101294.41;5080777;28;20059;-62
2021/03/26 13:18:49;;;;;;;10.23;4.90;;;;;;;13.77;73.76;101289.81;5081366;28;20051;-62
2021/03/26 13:21:27;;;;;;;6.57;4.07;;;;;;;13.51;74.11;101295.81;5080088;28;20060;-64
2021/03/26 13:23:56;;;;;;;14.70;5.03;;;;;;;13.61;75.88;101288.56;5081618;28;20048;-61
2021/03/26 13:26:27;;;;;;;8.40;4.55;;;;;;;13.60;75.17;101289.56;5079372;28;20052;-62
2021/03/26 13:28:55;;;;;;;8.20;4.75;;;;;;;13.56;74.01;101285.44;5080889;28;20055;-62
2021/03/26 13:31:32;;;;;;;11.55;4.35;;;;;;;13.86;74.77;101278.09;5079466;28;20410;-63
2021/03/26 13:34:06;;;;;;;6.70;4.45;;;;;;;13.78;73.22;101275.25;5080721;28;20044;-63
2021/03/26 13:36:37;;;;;;;10.70;4.47;;;;;;;13.75;74.06;101262.91;5079007;28;20048;-61
2021/03/26 13:39:24;;;;;;;12.20;4.32;;;;;;;13.94;73.09;101259.28;5080495;28;20405;-64
2021/03/26 13:41:59;;;;;;;6.72;4.13;;;;;;;13.95;71.94;101260.13;5080534;28;20405;-62
2021/03/26 13:44:41;;;;;;;6.85;3.70;;;;;;;13.86;74.83;101267.28;5079938;28;20048;-63